createdAt,value
2022-12-15T00:02:13.039Z,5.15
2022-12-15T00:04:57.985Z,5.82
2022-12-15T00:07:43.290Z,5.85
2022-12-15T00:10:28.360Z,6.30
2022-12-15T00:13:13.078Z,6.38
2022-12-15T00:15:58.026Z,6.50
2022-12-15T00:18:43.960Z,5.97
2022-12-15T00:21:28.689Z,5.97
2022-12-15T00:24:13.443Z,5.55
2022-12-15T00:26:58.213Z,5.90
2022-12-15T00:29:43.553Z,5.75
2022-12-15T00:32:28.329Z,5.95
2022-12-15T00:35:13.050Z,5.50
2022-12-15T00:37:58.307Z,5.50
2022-12-15T00:40:24.794Z,6.18
2022-12-15T00:42:51.229Z,5.57
2022-12-15T00:45:17.659Z,6.30
2022-12-15T00:47:44.369Z,7.00
2022-12-15T00:50:29.300Z,6.00
2022-12-15T00:53:14.264Z,5.68
2022-12-15T00:55:58.981Z,6.97
2022-12-15T00:58:44.283Z,6.22
2022-12-15T01:01:29.812Z,4.38
2022-12-15T01:04:15.015Z,5.97
2022-12-15T01:06:59.904Z,8.18
2022-12-15T01:09:45.203Z,7.22
2022-12-15T01:12:30.018Z,6.47
2022-12-15T01:15:14.909Z,7.15
2022-12-15T01:18:00.335Z,6.53
2022-12-15T01:20:26.803Z,5.78
2022-12-15T01:22:55.201Z,6.07
2022-12-15T01:25:24.164Z,5.57
2022-12-15T01:27:51.481Z,7.22
2022-12-15T01:30:20.596Z,6.93
2022-12-15T01:32:47.428Z,6.47
2022-12-15T01:35:14.173Z,6.03
2022-12-15T01:37:40.890Z,6.75
2022-12-15T01:40:26.924Z,7.03
2022-12-15T01:42:53.478Z,6.43
2022-12-15T01:45:29.035Z,5.63
2022-12-15T01:48:04.230Z,5.57
2022-12-15T01:50:32.963Z,6.38
2022-12-15T01:52:59.588Z,5.38
2022-12-15T01:55:28.239Z,6.72
2022-12-15T01:57:59.349Z,5.97
2022-12-15T02:00:26.703Z,5.45
2022-12-15T02:02:54.480Z,5.63
2022-12-15T02:05:21.893Z,5.95
2022-12-15T02:07:48.424Z,6.25
2022-12-15T02:10:16.601Z,6.47
2022-12-15T02:12:58.644Z,5.93
2022-12-15T02:15:44.128Z,5.97
2022-12-15T02:18:26.030Z,6.32
2022-12-15T02:21:34.112Z,6.00
2022-12-15T02:24:15.215Z,5.60
2022-12-15T02:27:03.252Z,6.00
2022-12-15T02:30:05.746Z,5.60
2022-12-15T02:32:55.847Z,5.78
2022-12-15T02:35:52.773Z,5.93
2022-12-15T02:38:35.161Z,6.32
2022-12-15T02:41:03.525Z,5.55
2022-12-15T02:43:34.497Z,6.15
2022-12-15T02:46:22.577Z,6.30
2022-12-15T02:49:08.937Z,5.95
2022-12-15T02:51:54.999Z,6.35
2022-12-15T02:54:36.077Z,5.38
2022-12-15T02:57:29.529Z,6.43
2022-12-15T03:00:07.243Z,5.55
2022-12-15T03:02:37.560Z,5.63
2022-12-15T03:05:05.006Z,6.65
2022-12-15T03:07:31.631Z,5.82
2022-12-15T03:10:00.863Z,5.63
2022-12-15T03:12:27.723Z,6.18
2022-12-15T03:14:54.221Z,6.35
2022-12-15T03:17:20.859Z,5.47
2022-12-15T03:19:47.315Z,6.15
2022-12-15T03:22:16.340Z,6.57
2022-12-15T03:24:42.721Z,6.07
2022-12-15T03:27:09.443Z,5.40
2022-12-15T03:29:35.792Z,5.25
2022-12-15T03:32:02.317Z,6.07
2022-12-15T03:34:28.916Z,6.07
2022-12-15T03:36:55.339Z,5.82
2022-12-15T03:39:21.784Z,5.90
2022-12-15T03:41:48.178Z,6.78
2022-12-15T03:44:14.622Z,6.40
2022-12-15T03:46:41.052Z,6.47
2022-12-15T03:49:07.678Z,6.40
2022-12-15T03:51:34.409Z,5.47
2022-12-15T03:54:00.904Z,5.82
2022-12-15T03:56:27.426Z,6.43
2022-12-15T03:58:54.147Z,6.38
2022-12-15T04:01:32.327Z,6.32
2022-12-15T04:04:01.109Z,6.60
2022-12-15T04:06:29.067Z,6.70
2022-12-15T04:08:57.059Z,5.47
2022-12-15T04:11:23.441Z,5.20
2022-12-15T04:13:49.851Z,5.93
2022-12-15T04:16:19.841Z,6.50
2022-12-15T04:19:08.081Z,5.25
2022-12-15T04:21:34.449Z,6.22
2022-12-15T04:24:19.372Z,6.95
2022-12-15T04:27:04.172Z,5.63
2022-12-15T04:29:49.614Z,5.85
2022-12-15T04:32:34.454Z,5.28
2022-12-15T04:35:19.210Z,6.03
2022-12-15T04:38:04.489Z,5.35
2022-12-15T04:40:49.405Z,6.13
2022-12-15T04:43:34.478Z,5.65
2022-12-15T04:46:19.716Z,5.22
2022-12-15T04:49:05.141Z,6.50
2022-12-15T04:51:51.960Z,5.60
2022-12-15T04:54:36.732Z,5.97
2022-12-15T04:57:21.388Z,7.25
2022-12-15T05:00:06.184Z,5.95
2022-12-15T05:02:51.510Z,5.75
2022-12-15T05:05:36.507Z,6.07
2022-12-15T05:08:21.860Z,5.13
2022-12-15T05:11:08.827Z,5.95
2022-12-15T05:13:53.708Z,6.40
2022-12-15T05:16:38.357Z,5.32
2022-12-15T05:19:24.101Z,5.80
2022-12-15T05:22:08.987Z,5.93
2022-12-15T05:24:53.805Z,6.18
2022-12-15T05:27:39.088Z,6.03
2022-12-15T05:30:24.287Z,6.50
2022-12-15T05:32:50.692Z,5.53
2022-12-15T05:35:17.222Z,5.55
2022-12-15T05:37:44.064Z,5.63
2022-12-15T05:40:10.828Z,6.43
2022-12-15T05:42:37.208Z,6.28
2022-12-15T05:45:05.072Z,6.32
2022-12-15T05:47:31.680Z,6.57
2022-12-15T05:49:58.157Z,5.68
2022-12-15T05:52:24.767Z,6.00
2022-12-15T05:54:51.495Z,5.95
2022-12-15T05:57:18.253Z,6.30
2022-12-15T05:59:44.600Z,6.25
2022-12-15T06:02:11.297Z,5.35
2022-12-15T06:04:37.868Z,5.93
2022-12-15T06:07:07.087Z,6.95
2022-12-15T06:09:33.440Z,6.75
2022-12-15T06:11:59.859Z,7.35
2022-12-15T06:14:26.234Z,7.22
2022-12-15T06:16:52.690Z,7.32
2022-12-15T06:19:21.143Z,5.82
2022-12-15T06:21:47.936Z,6.05
2022-12-15T06:24:14.329Z,6.97
2022-12-15T06:26:40.883Z,6.10
2022-12-15T06:29:10.632Z,5.93
2022-12-15T06:31:38.274Z,6.45
2022-12-15T06:34:06.729Z,7.10
2022-12-15T06:36:33.347Z,6.82
2022-12-15T06:39:01.930Z,6.45
2022-12-15T06:41:31.874Z,7.28
2022-12-15T06:43:59.326Z,8.10
2022-12-15T06:46:27.896Z,6.55
2022-12-15T06:48:55.164Z,6.45
2022-12-15T06:51:22.170Z,6.05
2022-12-15T06:53:49.053Z,6.13
2022-12-15T06:56:19.350Z,5.93
2022-12-15T06:58:49.576Z,7.35
2022-12-15T07:01:16.859Z,6.15
2022-12-15T07:03:44.187Z,6.38
2022-12-15T07:06:13.021Z,7.50
2022-12-15T07:08:41.807Z,5.75
2022-12-15T07:11:11.371Z,5.93
2022-12-15T07:13:38.332Z,5.75
2022-12-15T07:16:07.043Z,5.78
2022-12-15T07:18:33.891Z,5.60
2022-12-15T07:21:05.846Z,6.53
2022-12-15T07:23:53.256Z,6.47
2022-12-15T07:26:19.076Z,6.35
2022-12-15T07:28:48.092Z,7.47
2022-12-15T07:31:15.542Z,7.82
2022-12-15T07:33:42.351Z,7.38
2022-12-15T07:36:08.916Z,8.00
2022-12-15T07:38:35.948Z,8.90
2022-12-15T07:41:04.771Z,7.65
2022-12-15T07:43:31.729Z,7.45
2022-12-15T07:45:59.169Z,8.18
2022-12-15T07:48:27.140Z,8.02
2022-12-15T07:51:02.741Z,8.23
2022-12-15T07:53:33.612Z,6.80
2022-12-15T07:56:09.634Z,6.93
2022-12-15T07:58:38.071Z,6.85
2022-12-15T08:01:07.237Z,6.35
2022-12-15T08:03:35.033Z,6.28
2022-12-15T08:06:06.206Z,7.65
2022-12-15T08:08:33.852Z,7.88
2022-12-15T08:11:07.718Z,7.55
2022-12-15T08:14:06.911Z,9.00
2022-12-15T08:16:21.621Z,8.52
2022-12-15T08:18:48.975Z,9.38
2022-12-15T08:21:15.755Z,8.95
2022-12-15T08:23:42.193Z,10.15
2022-12-15T08:26:12.091Z,9.88
2022-12-15T08:28:40.978Z,9.85
2022-12-15T08:31:13.214Z,9.65
2022-12-15T08:33:40.101Z,9.27
2022-12-15T08:36:09.488Z,9.38
2022-12-15T08:38:38.526Z,9.02
2022-12-15T08:41:23.252Z,8.95
2022-12-15T08:43:50.647Z,10.15
2022-12-15T08:46:18.921Z,10.10
2022-12-15T08:48:46.387Z,10.45
2022-12-15T08:51:13.643Z,11.27
2022-12-15T08:53:40.154Z,12.20
2022-12-15T08:56:16.172Z,11.65
2022-12-15T08:58:44.539Z,11.38
2022-12-15T09:01:23.932Z,11.57
2022-12-15T09:03:52.286Z,10.60
2022-12-15T09:06:22.915Z,10.35
2022-12-15T09:08:50.589Z,10.25
2022-12-15T09:11:17.320Z,10.90
2022-12-15T09:13:43.670Z,11.23
2022-12-15T09:16:15.977Z,10.98
2022-12-15T09:18:48.329Z,11.32
2022-12-15T09:21:16.636Z,10.90
2022-12-15T09:23:43.431Z,12.13
2022-12-15T09:26:12.255Z,11.15
2022-12-15T09:28:39.448Z,12.82
2022-12-15T09:31:08.947Z,11.98
2022-12-15T09:33:36.344Z,10.75
2022-12-15T09:36:03.776Z,12.18
2022-12-15T09:38:33.993Z,12.40
2022-12-15T09:41:14.245Z,11.63
2022-12-15T09:44:26.904Z,11.50
2022-12-15T09:47:11.433Z,12.38
2022-12-15T09:49:57.340Z,13.82
2022-12-15T09:52:31.155Z,12.65
2022-12-15T09:54:58.814Z,11.68
2022-12-15T09:57:52.806Z,13.10
2022-12-15T10:00:34.491Z,11.93
2022-12-15T10:03:16.461Z,13.60
2022-12-15T10:06:16.216Z,12.32
2022-12-15T10:09:09.310Z,11.32
2022-12-15T10:11:57.546Z,12.70
2022-12-15T10:14:44.203Z,13.93
2022-12-15T10:17:27.690Z,13.50
2022-12-15T10:20:07.278Z,12.65
2022-12-15T10:22:38.027Z,12.65
2022-12-15T10:25:30.351Z,12.35
2022-12-15T10:28:18.460Z,12.93
2022-12-15T10:30:59.401Z,12.25
2022-12-15T10:33:35.580Z,13.10
2022-12-15T10:36:08.015Z,13.00
2022-12-15T10:38:42.424Z,12.07
2022-12-15T10:41:25.857Z,11.23
2022-12-15T10:43:54.729Z,10.57
2022-12-15T10:46:26.960Z,12.13
2022-12-15T10:49:00.705Z,11.70
2022-12-15T10:51:31.548Z,10.77
2022-12-15T10:54:10.099Z,11.82
2022-12-15T10:56:54.811Z,12.52
2022-12-15T10:59:29.575Z,11.25
2022-12-15T11:01:56.231Z,13.30
2022-12-15T11:04:31.566Z,12.05
2022-12-15T11:07:13.759Z,10.77
2022-12-15T11:09:40.415Z,11.82
2022-12-15T11:12:41.552Z,11.85
2022-12-15T11:15:22.965Z,11.65
2022-12-15T11:18:07.031Z,12.65
2022-12-15T11:20:42.150Z,12.20
2022-12-15T11:23:22.948Z,13.82
2022-12-15T11:26:04.948Z,14.20
2022-12-15T11:28:59.916Z,12.13
2022-12-15T11:31:38.641Z,11.32
2022-12-15T11:34:13.100Z,11.75
2022-12-15T11:36:59.790Z,13.25
2022-12-15T11:39:29.671Z,13.27
2022-12-15T11:42:16.089Z,12.90
2022-12-15T11:44:51.911Z,12.38
2022-12-15T11:47:39.562Z,13.23
2022-12-15T11:50:33.673Z,12.52
2022-12-15T11:53:20.344Z,12.30
2022-12-15T11:56:18.263Z,12.77
2022-12-15T11:59:23.261Z,12.52
2022-12-15T12:02:17.875Z,12.40
2022-12-15T12:05:23.196Z,12.15
2022-12-15T12:08:04.892Z,11.43
2022-12-15T12:10:38.248Z,11.98
2022-12-15T12:13:47.329Z,12.20
2022-12-15T12:16:31.374Z,12.88
2022-12-15T12:19:11.579Z,12.43
2022-12-15T12:21:50.899Z,11.65
2022-12-15T12:24:29.965Z,11.05
2022-12-15T12:26:59.370Z,11.02
2022-12-15T12:29:33.272Z,11.70
2022-12-15T12:32:40.169Z,11.77
2022-12-15T12:35:31.564Z,11.98
2022-12-15T12:38:06.958Z,11.02
2022-12-15T12:40:54.696Z,13.32
2022-12-15T12:43:40.757Z,12.18
2022-12-15T12:46:10.117Z,12.30
2022-12-15T12:48:50.855Z,13.02
2022-12-15T12:51:25.362Z,12.05
2022-12-15T12:53:52.505Z,14.60
2022-12-15T12:56:45.475Z,13.40
2022-12-15T12:59:37.792Z,13.10
2022-12-15T13:02:24.570Z,12.90
2022-12-15T13:05:00.498Z,14.13
2022-12-15T13:07:34.756Z,13.35
2022-12-15T13:10:19.210Z,13.68
2022-12-15T13:12:53.697Z,14.80
2022-12-15T13:15:39.967Z,14.73
2022-12-15T13:18:08.250Z,13.23
2022-12-15T13:20:37.540Z,13.73
2022-12-15T13:23:19.305Z,13.63
2022-12-15T13:26:10.864Z,14.55
2022-12-15T13:28:40.260Z,14.13
2022-12-15T13:31:19.990Z,13.80
2022-12-15T13:33:49.658Z,15.48
2022-12-15T13:36:38.184Z,15.23
2022-12-15T13:39:25.288Z,15.57
2022-12-15T13:42:31.708Z,15.35
2022-12-15T13:44:49.010Z,15.25
2022-12-15T13:47:28.309Z,14.20
2022-12-15T13:50:05.904Z,14.10
2022-12-15T13:53:08.459Z,14.15
2022-12-15T13:55:28.036Z,15.45
2022-12-15T13:58:17.560Z,15.60
2022-12-15T14:00:55.154Z,15.05
2022-12-15T14:03:22.148Z,17.52
2022-12-15T14:05:57.136Z,16.40
2022-12-15T14:08:28.705Z,17.05
2022-12-15T14:10:57.999Z,17.85
2022-12-15T14:13:28.766Z,14.82
2022-12-15T14:16:21.762Z,16.13
2022-12-15T14:19:17.412Z,16.15
2022-12-15T14:22:02.245Z,16.73
2022-12-15T14:24:39.007Z,15.82
2022-12-15T14:27:06.591Z,15.13
2022-12-15T14:29:33.267Z,15.15
2022-12-15T14:32:00.704Z,17.13
2022-12-15T14:34:35.617Z,16.98
2022-12-15T14:37:07.738Z,15.48
2022-12-15T14:39:54.818Z,16.65
2022-12-15T14:42:25.729Z,17.05
2022-12-15T14:47:39.879Z,17.55
2022-12-15T14:50:11.343Z,16.30
2022-12-15T14:52:41.809Z,17.92
2022-12-15T14:55:23.508Z,17.50
2022-12-15T14:57:52.476Z,15.57
2022-12-15T15:00:30.435Z,16.27
2022-12-15T15:03:16.258Z,15.90
2022-12-15T15:03:18.313Z,15.85
2022-12-15T15:05:48.140Z,17.73
2022-12-15T15:08:37.301Z,16.33
2022-12-15T15:11:35.929Z,15.95
2022-12-15T15:14:13.248Z,17.23
2022-12-15T15:16:39.852Z,18.45
2022-12-15T15:19:07.195Z,15.90
2022-12-15T15:21:39.041Z,16.63
2022-12-15T15:24:11.578Z,16.15
2022-12-15T15:26:39.881Z,15.65
2022-12-15T15:29:39.471Z,17.05
2022-12-15T15:32:15.829Z,16.67
2022-12-15T15:34:44.892Z,17.00
2022-12-15T15:37:25.114Z,16.40
2022-12-15T15:39:54.099Z,17.05
2022-12-15T15:42:20.659Z,18.08
2022-12-15T15:44:47.361Z,19.42
2022-12-15T15:47:20.554Z,20.63
2022-12-15T15:49:47.418Z,20.40
2022-12-15T15:52:14.047Z,19.48
2022-12-15T15:54:40.785Z,19.75
2022-12-15T15:57:13.268Z,17.52
2022-12-15T15:59:42.235Z,17.63
2022-12-15T16:02:13.815Z,18.95
2022-12-15T16:04:43.916Z,17.88
2022-12-15T16:07:24.343Z,19.48
2022-12-15T16:09:52.389Z,21.02
2022-12-15T16:12:36.902Z,21.20
2022-12-15T16:15:12.819Z,20.08
2022-12-15T16:17:39.925Z,21.08
2022-12-15T16:20:06.935Z,18.67
2022-12-15T16:22:33.706Z,18.77
2022-12-15T16:25:03.378Z,19.33
2022-12-15T16:27:30.457Z,17.38
2022-12-15T16:29:57.969Z,19.08
2022-12-15T16:32:24.411Z,19.08
2022-12-15T16:34:52.960Z,19.58
2022-12-15T16:37:27.364Z,16.98
2022-12-15T16:39:53.816Z,18.15
2022-12-15T16:42:20.248Z,17.48
2022-12-15T16:44:46.719Z,17.52
2022-12-15T16:47:13.160Z,18.42
2022-12-15T16:49:40.534Z,18.48
2022-12-15T16:52:18.631Z,19.45
2022-12-15T16:54:48.464Z,21.23
2022-12-15T16:57:15.240Z,19.83
2022-12-15T16:59:41.682Z,19.23
2022-12-15T17:02:29.076Z,19.50
2022-12-15T17:04:55.926Z,20.15
2022-12-15T17:07:26.192Z,20.60
2022-12-15T17:09:52.666Z,21.25
2022-12-15T17:12:19.223Z,21.35
2022-12-15T17:14:46.064Z,21.90
2022-12-15T17:17:14.976Z,26.77
2022-12-15T17:19:52.640Z,26.13
2022-12-15T17:22:28.188Z,24.95
2022-12-15T17:24:58.216Z,23.10
2022-12-15T17:27:29.408Z,24.75
2022-12-15T17:29:58.216Z,22.65
2022-12-15T17:32:24.673Z,23.30
2022-12-15T17:34:51.651Z,22.75
2022-12-15T17:37:18.844Z,21.58
2022-12-15T17:39:50.797Z,20.95
2022-12-15T17:42:19.664Z,21.92
2022-12-15T17:44:47.786Z,20.95
2022-12-15T17:47:15.824Z,21.40
2022-12-15T17:49:43.325Z,21.73
2022-12-15T17:52:25.021Z,23.15
2022-12-15T17:54:52.212Z,23.50
2022-12-15T17:57:18.735Z,21.92
2022-12-15T17:59:45.532Z,20.13
2022-12-15T18:02:15.595Z,22.23
2022-12-15T18:04:43.202Z,22.40
2022-12-15T18:07:27.905Z,22.50
2022-12-15T18:09:54.406Z,19.95
2022-12-15T18:12:24.838Z,20.98
2022-12-15T18:14:53.055Z,19.65
2022-12-15T18:17:19.949Z,19.00
2022-12-15T18:19:46.507Z,18.73
2022-12-15T18:22:17.836Z,18.17
2022-12-15T18:24:44.393Z,18.88
2022-12-15T18:27:26.661Z,19.95
2022-12-15T18:29:53.601Z,19.45
2022-12-15T18:32:23.280Z,19.23
2022-12-15T18:34:50.534Z,20.58
2022-12-15T18:37:22.899Z,19.83
2022-12-15T18:39:50.447Z,20.52
2022-12-15T18:42:19.307Z,18.75
2022-12-15T18:44:49.833Z,20.67
2022-12-15T18:47:21.457Z,19.85
2022-12-15T18:49:48.112Z,21.77
2022-12-15T18:52:20.337Z,20.85
2022-12-15T18:54:51.322Z,21.85
2022-12-15T18:57:32.888Z,21.23
2022-12-15T19:00:09.846Z,22.10
2022-12-15T19:02:36.454Z,20.75
2022-12-15T19:05:03.526Z,22.45
2022-12-15T19:07:30.572Z,20.77
2022-12-15T19:09:57.041Z,19.50
2022-12-15T19:12:23.971Z,21.70
2022-12-15T19:14:51.889Z,21.88
2022-12-15T19:17:52.623Z,20.23
2022-12-15T19:20:39.267Z,21.00
2022-12-15T19:23:06.830Z,20.95
2022-12-15T19:25:33.907Z,19.38
2022-12-15T19:28:01.382Z,22.13
2022-12-15T19:30:30.334Z,18.30
2022-12-15T19:32:57.684Z,19.50
2022-12-15T19:35:24.931Z,19.10
2022-12-15T19:37:54.860Z,20.15
2022-12-15T19:40:27.456Z,21.45
2022-12-15T19:42:55.610Z,19.70
2022-12-15T19:45:25.086Z,18.60
2022-12-15T19:47:52.119Z,18.75
2022-12-15T19:50:36.005Z,19.73
2022-12-15T19:55:35.248Z,17.80
2022-12-15T19:58:27.562Z,19.35
2022-12-15T20:01:00.273Z,19.75
2022-12-15T20:03:28.107Z,21.38
2022-12-15T20:05:56.332Z,23.55
2022-12-15T20:08:29.274Z,19.15
2022-12-15T20:10:56.150Z,23.38
2022-12-15T20:13:23.352Z,22.00
2022-12-15T20:15:49.792Z,20.52
2022-12-15T20:18:16.582Z,23.20
2022-12-15T20:20:46.281Z,20.38
2022-12-15T20:23:23.703Z,23.23
2022-12-15T20:25:50.482Z,23.65
2022-12-15T20:28:21.929Z,21.17
2022-12-15T20:33:15.579Z,17.92
2022-12-15T20:35:43.549Z,21.85
2022-12-15T20:38:26.380Z,21.08
2022-12-15T20:40:53.771Z,19.98
2022-12-15T20:43:22.073Z,16.80
2022-12-15T20:45:58.159Z,21.73
2022-12-15T20:48:25.571Z,21.17
2022-12-15T20:50:53.297Z,23.83
2022-12-15T20:53:22.671Z,21.63
2022-12-15T20:55:51.122Z,21.13
2022-12-15T20:58:19.724Z,22.10
2022-12-15T21:00:47.442Z,20.55
2022-12-15T21:03:23.537Z,18.83
2022-12-15T21:05:51.678Z,20.70
2022-12-15T21:08:25.016Z,20.63
2022-12-15T21:10:53.533Z,19.00
2022-12-15T21:13:24.847Z,21.20
2022-12-15T21:19:03.666Z,18.27
2022-12-15T21:21:17.186Z,18.58
2022-12-15T21:23:43.589Z,19.13
2022-12-15T21:26:10.564Z,20.25
2022-12-15T21:28:37.304Z,19.98
2022-12-15T21:31:03.854Z,20.92
2022-12-15T21:33:30.380Z,20.73
2022-12-15T21:35:56.901Z,20.63
2022-12-15T21:38:26.316Z,19.52
2022-12-15T21:40:59.296Z,19.65
2022-12-15T21:43:29.817Z,19.80
2022-12-15T21:45:56.532Z,19.83
2022-12-15T21:48:41.919Z,19.98
2022-12-15T21:51:14.438Z,19.10
2022-12-15T21:53:41.425Z,19.58
2022-12-15T21:56:14.101Z,19.92
2022-12-15T21:58:40.967Z,20.63
2022-12-15T22:01:20.786Z,20.40
2022-12-15T22:03:51.900Z,18.95
2022-12-15T22:06:24.128Z,19.33
2022-12-15T22:08:58.719Z,19.73
2022-12-15T22:11:30.791Z,18.67
2022-12-15T22:14:04.555Z,19.40
2022-12-15T22:16:31.006Z,19.90
2022-12-15T22:18:58.425Z,18.73
2022-12-15T22:21:25.698Z,18.50
2022-12-15T22:23:52.265Z,20.30
2022-12-15T22:26:27.119Z,19.00
2022-12-15T22:28:55.903Z,19.45
2022-12-15T22:31:22.824Z,20.58
2022-12-15T22:33:49.407Z,19.65
2022-12-15T22:36:15.797Z,18.88
2022-12-15T22:38:42.435Z,20.40
2022-12-15T22:41:18.383Z,20.20
2022-12-15T22:43:48.367Z,21.48
2022-12-15T22:46:15.126Z,19.80
2022-12-15T22:48:44.545Z,20.65
2022-12-15T22:51:13.852Z,18.77
2022-12-15T22:53:40.793Z,18.75
2022-12-15T22:56:21.681Z,20.20
2022-12-15T22:58:50.745Z,19.13
2022-12-15T23:01:19.014Z,19.65
2022-12-15T23:03:45.632Z,21.90
2022-12-15T23:06:12.104Z,19.73
2022-12-15T23:08:38.684Z,20.20
2022-12-15T23:11:23.765Z,19.48
2022-12-15T23:13:50.197Z,20.70
2022-12-15T23:16:21.768Z,18.70
2022-12-15T23:18:50.586Z,20.52
2022-12-15T23:21:19.148Z,19.90
2022-12-15T23:23:45.997Z,20.02
2022-12-15T23:26:13.518Z,21.85
2022-12-15T23:28:40.653Z,19.88
2022-12-15T23:31:08.166Z,20.58
2022-12-15T23:33:35.237Z,19.75
2022-12-15T23:36:02.424Z,20.67
2022-12-15T23:38:29.441Z,19.65
2022-12-15T23:40:57.119Z,20.23
2022-12-15T23:43:24.986Z,21.25
2022-12-15T23:46:06.465Z,19.73
2022-12-15T23:48:38.739Z,20.75
2022-12-15T23:51:10.641Z,18.80
2022-12-15T23:53:38.544Z,20.38
2022-12-15T23:56:06.337Z,20.08
2022-12-15T23:58:33.000Z,19.60
